createdAt,value
2023-04-03T00:01:19.771Z,99128.75
2023-04-03T00:04:08.012Z,99127.67
2023-04-03T00:06:42.221Z,99121.48
2023-04-03T00:09:11.706Z,99119.38
2023-04-03T00:11:39.994Z,99118.50
2023-04-03T00:14:08.380Z,99116.92
2023-04-03T00:16:37.315Z,99111.05
2023-04-03T00:19:07.597Z,99109.65
2023-04-03T00:21:35.986Z,99118.02
2023-04-03T00:24:05.121Z,99111.82
2023-04-03T00:26:39.725Z,99104.92
2023-04-03T00:29:08.156Z,99103.71
2023-04-03T00:31:36.435Z,99092.00
2023-04-03T00:34:04.890Z,99095.08
2023-04-03T00:36:33.941Z,99083.02
2023-04-03T00:39:02.427Z,99085.95
2023-04-03T00:41:30.784Z,99081.30
2023-04-03T00:43:59.017Z,99070.13
2023-04-03T00:46:27.639Z,99075.80
2023-04-03T00:48:56.252Z,99079.07
2023-04-03T00:51:25.061Z,99069.77
2023-04-03T00:54:00.952Z,99079.23
2023-04-03T00:56:29.733Z,99074.58
2023-04-03T00:58:57.920Z,99064.27
2023-04-03T01:01:27.039Z,99064.79
2023-04-03T01:03:56.007Z,99062.38
2023-04-03T01:06:27.229Z,99064.96
2023-04-03T01:08:55.589Z,99064.27
2023-04-03T01:11:24.271Z,99056.86
2023-04-03T01:13:52.555Z,99056.84
2023-04-03T01:16:20.991Z,99058.23
2023-04-03T01:18:49.249Z,99055.83
2023-04-03T01:21:26.811Z,99056.99
2023-04-03T01:24:01.194Z,99055.61
2023-04-03T01:26:29.649Z,99059.70
2023-04-03T01:28:59.702Z,99049.70
2023-04-03T01:31:29.301Z,99050.89
2023-04-03T01:33:57.981Z,99057.77
2023-04-03T01:36:27.354Z,99057.05
2023-04-03T01:38:56.169Z,99061.29
2023-04-03T01:41:25.000Z,99053.17
2023-04-03T01:43:53.890Z,99043.55
2023-04-03T01:46:22.464Z,99047.00
2023-04-03T01:48:50.926Z,99046.65
2023-04-03T01:51:19.430Z,99044.90
2023-04-03T01:53:47.781Z,99044.89
2023-04-03T01:56:16.028Z,99045.41
2023-04-03T01:58:44.775Z,99036.28
2023-04-03T02:01:17.641Z,99036.98
2023-04-03T02:03:48.028Z,99036.82
2023-04-03T02:06:16.321Z,99036.46
2023-04-03T02:08:47.015Z,99039.56
2023-04-03T02:11:16.522Z,99036.29
2023-04-03T02:13:45.584Z,99032.51
2023-04-03T02:16:14.651Z,99032.68
2023-04-03T02:18:43.698Z,99025.14
2023-04-03T02:21:16.429Z,99023.61
2023-04-03T02:23:44.990Z,99032.41
2023-04-03T02:26:14.518Z,99027.95
2023-04-03T02:28:43.679Z,99016.95
2023-04-03T02:31:11.983Z,99019.39
2023-04-03T02:33:41.463Z,99019.05
2023-04-03T02:36:11.264Z,99019.38
2023-04-03T02:38:40.934Z,99015.61
2023-04-03T02:41:09.981Z,99020.41
2023-04-03T02:43:38.872Z,99008.18
2023-04-03T02:46:07.964Z,99009.21
2023-04-03T02:48:37.692Z,99015.06
2023-04-03T02:51:06.112Z,99018.15
2023-04-03T02:53:35.966Z,99013.64
2023-04-03T02:56:11.655Z,99009.31
2023-04-03T02:58:40.028Z,99000.55
2023-04-03T03:01:09.282Z,99003.79
2023-04-03T03:03:38.449Z,99007.04
2023-04-03T03:06:10.515Z,99001.17
2023-04-03T03:08:39.455Z,99003.42
2023-04-03T03:11:08.207Z,99010.27
2023-04-03T03:13:36.401Z,99005.95
2023-04-03T03:16:06.664Z,99002.15
2023-04-03T03:18:35.135Z,98994.23
2023-04-03T03:21:08.193Z,99003.85
2023-04-03T03:23:37.553Z,98996.42
2023-04-03T03:26:06.821Z,98995.54
2023-04-03T03:28:39.350Z,98994.99
2023-04-03T03:31:08.023Z,98989.11
2023-04-03T03:33:36.943Z,98992.52
2023-04-03T03:36:05.422Z,98990.62
2023-04-03T03:38:33.939Z,98995.23
2023-04-03T03:41:03.285Z,98984.73
2023-04-03T03:43:33.008Z,98987.65
2023-04-03T03:46:01.283Z,98982.66
2023-04-03T03:48:29.742Z,98986.08
2023-04-03T03:50:58.443Z,98988.11
2023-04-03T03:53:29.824Z,98983.23
2023-04-03T03:56:01.397Z,98985.95
2023-04-03T03:58:30.711Z,98979.54
2023-04-03T04:01:05.037Z,98968.85
2023-04-03T04:03:34.958Z,98978.31
2023-04-03T04:06:03.739Z,98976.73
2023-04-03T04:08:34.630Z,98976.14
2023-04-03T04:11:03.979Z,98970.77
2023-04-03T04:13:32.476Z,98972.27
2023-04-03T04:16:01.810Z,98967.73
2023-04-03T04:18:31.311Z,98962.55
2023-04-03T04:20:59.973Z,98964.02
2023-04-03T04:23:29.198Z,98961.91
2023-04-03T04:25:58.789Z,98970.16
2023-04-03T04:28:29.469Z,98957.53
2023-04-03T04:30:58.689Z,98957.48
2023-04-03T04:33:27.879Z,98955.55
2023-04-03T04:35:56.673Z,98952.41
2023-04-03T04:38:25.574Z,98950.47
2023-04-03T04:40:54.450Z,98953.71
2023-04-03T04:43:23.008Z,98953.34
2023-04-03T04:46:06.440Z,98953.13
2023-04-03T04:48:37.921Z,98956.52
2023-04-03T04:51:06.724Z,98955.58
2023-04-03T04:53:35.375Z,98955.23
2023-04-03T04:56:03.794Z,98958.64
2023-04-03T04:58:35.024Z,98949.48
2023-04-03T05:01:04.364Z,98953.40
2023-04-03T05:03:33.433Z,98960.27
2023-04-03T05:06:01.659Z,98952.64
2023-04-03T05:08:32.186Z,98952.77
2023-04-03T05:11:06.670Z,98947.95
2023-04-03T05:13:36.335Z,98950.12
2023-04-03T05:16:05.112Z,98953.38
2023-04-03T05:18:33.981Z,98952.36
2023-04-03T05:21:04.338Z,98950.36
2023-04-03T05:23:32.910Z,98952.50
2023-04-03T05:26:02.997Z,98954.75
2023-04-03T05:28:32.945Z,98961.46
2023-04-03T05:31:01.452Z,98958.05
2023-04-03T05:33:34.239Z,98960.16
2023-04-03T05:36:03.737Z,98964.31
2023-04-03T05:38:33.306Z,98964.34
2023-04-03T05:41:02.459Z,98960.61
2023-04-03T05:43:30.984Z,98967.02
2023-04-03T05:45:59.866Z,98965.51
2023-04-03T05:48:28.457Z,98969.29
2023-04-03T05:50:57.232Z,98974.60
2023-04-03T05:53:28.601Z,98972.71
2023-04-03T05:56:02.497Z,98975.81
2023-04-03T05:58:32.807Z,98980.98
2023-04-03T06:01:01.158Z,98982.88
2023-04-03T06:03:39.586Z,98985.30
2023-04-03T06:06:12.371Z,98985.42
2023-04-03T06:08:40.568Z,98989.19
2023-04-03T06:11:10.823Z,98992.96
2023-04-03T06:13:39.412Z,98991.42
2023-04-03T06:16:07.706Z,98996.80
2023-04-03T06:18:36.250Z,98996.30
2023-04-03T06:21:05.942Z,98999.95
2023-04-03T06:23:35.949Z,99002.23
2023-04-03T06:26:04.324Z,99002.61
2023-04-03T06:28:33.046Z,98998.84
2023-04-03T06:31:01.570Z,99001.24
2023-04-03T06:33:31.378Z,99003.29
2023-04-03T06:35:59.770Z,99002.02
2023-04-03T06:38:28.201Z,99000.94
2023-04-03T06:40:57.239Z,99007.45
2023-04-03T06:43:25.892Z,99007.92
2023-04-03T06:45:54.187Z,99013.20
2023-04-03T06:48:22.828Z,99016.06
2023-04-03T06:50:51.322Z,99018.92
2023-04-03T06:53:20.036Z,99022.83
2023-04-03T06:55:48.667Z,99023.83
2023-04-03T06:58:19.488Z,99024.13
2023-04-03T07:00:48.944Z,99028.54
2023-04-03T07:03:20.252Z,99028.27
2023-04-03T07:05:48.928Z,99032.02
2023-04-03T07:08:17.654Z,99030.61
2023-04-03T07:10:46.373Z,99032.93
2023-04-03T07:13:15.969Z,99030.91
2023-04-03T07:15:44.344Z,99033.36
2023-04-03T07:18:12.816Z,99034.64
2023-04-03T07:20:42.078Z,99038.87
2023-04-03T07:23:11.682Z,99039.56
2023-04-03T07:25:43.969Z,99040.31
2023-04-03T07:28:13.016Z,99042.23
2023-04-03T07:30:46.284Z,99045.17
2023-04-03T07:33:15.127Z,99046.88
2023-04-03T07:35:43.557Z,99051.16
2023-04-03T07:38:12.242Z,99054.09
2023-04-03T07:40:40.995Z,99059.20
2023-04-03T07:43:09.684Z,99064.86
2023-04-03T07:45:38.163Z,99065.36
2023-04-03T07:48:08.281Z,99063.48
2023-04-03T07:50:37.423Z,99072.30
2023-04-03T07:53:07.434Z,99075.56
2023-04-03T07:55:38.614Z,99081.21
2023-04-03T07:58:12.132Z,99082.40
2023-04-03T08:00:41.219Z,99088.92
2023-04-03T08:03:12.435Z,99091.10
2023-04-03T08:05:41.874Z,99092.56
2023-04-03T08:08:11.008Z,99092.96
2023-04-03T08:10:40.107Z,99102.53
2023-04-03T08:13:08.364Z,99095.79
2023-04-03T08:15:37.147Z,99098.98
2023-04-03T08:18:05.679Z,99106.02
2023-04-03T08:20:34.010Z,99110.22
2023-04-03T08:23:02.217Z,99114.06
2023-04-03T08:25:31.149Z,99118.54
2023-04-03T08:27:59.435Z,99122.25
2023-04-03T08:30:27.649Z,99125.80
2023-04-03T08:32:57.258Z,99133.63
2023-04-03T08:35:26.129Z,99134.67
2023-04-03T08:37:54.514Z,99136.94
2023-04-03T08:40:22.925Z,99138.17
2023-04-03T08:43:06.229Z,99137.88
2023-04-03T08:45:38.992Z,99149.71
2023-04-03T08:48:16.766Z,99152.21
2023-04-03T08:50:46.225Z,99149.66
2023-04-03T08:53:22.586Z,99154.77
2023-04-03T08:55:51.306Z,99162.40
2023-04-03T08:58:20.209Z,99164.34
2023-04-03T09:00:52.079Z,99173.80
2023-04-03T09:03:21.977Z,99173.92
2023-04-03T09:06:09.406Z,99176.17
2023-04-03T09:08:58.426Z,99181.35
2023-04-03T09:11:47.806Z,99188.84
2023-04-03T09:14:37.602Z,99192.30
2023-04-03T09:17:13.102Z,99191.48
2023-04-03T09:19:43.118Z,99205.88
2023-04-03T09:22:27.343Z,99207.06
2023-04-03T09:25:00.106Z,99208.05
2023-04-03T09:27:28.521Z,99211.56
2023-04-03T09:29:57.452Z,99210.19
2023-04-03T09:32:28.906Z,99218.54
2023-04-03T09:34:59.726Z,99221.42
2023-04-03T09:37:41.250Z,99221.56
2023-04-03T09:40:27.966Z,99225.66
2023-04-03T09:43:01.569Z,99228.44
2023-04-03T09:45:31.700Z,99234.35
2023-04-03T09:48:15.463Z,99245.44
2023-04-03T09:50:50.929Z,99256.50
2023-04-03T09:53:33.453Z,99253.83
2023-04-03T09:56:01.738Z,99258.92
2023-04-03T09:58:42.810Z,99262.64
2023-04-03T10:01:31.222Z,99263.28
2023-04-03T10:04:07.941Z,99267.48
2023-04-03T10:06:37.735Z,99276.86
2023-04-03T10:09:08.028Z,99274.52
2023-04-03T10:11:39.697Z,99280.95
2023-04-03T10:14:12.433Z,99286.39
2023-04-03T10:16:43.398Z,99291.17
2023-04-03T10:19:27.359Z,99294.31
2023-04-03T10:21:56.970Z,99303.32
2023-04-03T10:24:37.723Z,99305.38
2023-04-03T10:27:13.303Z,99308.50
2023-04-03T10:30:04.873Z,99316.11
2023-04-03T10:32:40.324Z,99319.67
2023-04-03T10:35:13.717Z,99325.61
2023-04-03T10:37:42.517Z,99325.51
2023-04-03T10:40:22.849Z,99326.02
2023-04-03T10:42:51.161Z,99330.98
2023-04-03T10:45:22.169Z,99326.41
2023-04-03T10:47:56.908Z,99336.02
2023-04-03T10:50:37.581Z,99341.85
2023-04-03T10:53:06.379Z,99343.27
2023-04-03T10:55:55.346Z,99347.02
2023-04-03T10:58:35.789Z,99347.14
2023-04-03T11:01:06.702Z,99354.63
2023-04-03T11:03:43.736Z,99353.97
2023-04-03T11:06:13.029Z,99356.80
2023-04-03T11:08:52.776Z,99353.40
2023-04-03T11:11:22.809Z,99362.84
2023-04-03T11:13:54.233Z,99359.02
2023-04-03T11:16:27.314Z,99364.72
2023-04-03T11:19:14.865Z,99368.20
2023-04-03T11:21:44.433Z,99372.14
2023-04-03T11:24:33.349Z,99376.41
2023-04-03T11:27:06.442Z,99376.84
2023-04-03T11:29:37.754Z,99377.15
2023-04-03T11:32:18.856Z,99381.71
2023-04-03T11:34:47.554Z,99384.27
2023-04-03T11:37:23.300Z,99385.99
2023-04-03T11:40:02.120Z,99389.63
2023-04-03T11:42:35.588Z,99389.46
2023-04-03T11:45:24.583Z,99389.98
2023-04-03T11:47:54.051Z,99392.52
2023-04-03T11:50:35.808Z,99390.82
2023-04-03T11:53:24.416Z,99397.86
2023-04-03T11:55:56.873Z,99397.07
2023-04-03T11:58:30.110Z,99400.67
2023-04-03T12:00:58.396Z,99396.56
2023-04-03T12:03:32.753Z,99400.14
2023-04-03T12:06:16.656Z,99406.39
2023-04-03T12:08:46.857Z,99410.33
2023-04-03T12:11:17.734Z,99407.40
2023-04-03T12:13:55.249Z,99415.05
2023-04-03T12:16:26.708Z,99418.44
2023-04-03T12:18:55.340Z,99416.03
2023-04-03T12:21:32.882Z,99427.04
2023-04-03T12:24:05.208Z,99428.85
2023-04-03T12:26:47.643Z,99431.67
2023-04-03T12:29:19.616Z,99433.55
2023-04-03T12:32:08.688Z,99437.01
2023-04-03T12:34:49.457Z,99438.16
2023-04-03T12:37:17.835Z,99443.45
2023-04-03T12:39:56.949Z,99441.02
2023-04-03T12:42:28.410Z,99439.00
2023-04-03T12:45:16.061Z,99440.39
2023-04-03T12:47:45.335Z,99448.33
2023-04-03T12:50:22.824Z,99452.86
2023-04-03T12:52:52.917Z,99450.27
2023-04-03T12:55:22.037Z,99448.35
2023-04-03T12:57:50.290Z,99453.86
2023-04-03T13:00:23.112Z,99458.98
2023-04-03T13:03:28.107Z,99457.72
2023-04-03T13:05:58.588Z,99455.14
2023-04-03T13:08:27.275Z,99457.21
2023-04-03T13:10:58.340Z,99460.85
2023-04-03T13:13:27.486Z,99466.02
2023-04-03T13:15:56.254Z,99467.34
2023-04-03T13:18:32.461Z,99467.55
2023-04-03T13:21:06.997Z,99469.63
2023-04-03T13:23:36.204Z,99473.48
2023-04-03T13:26:04.707Z,99476.98
2023-04-03T13:28:33.145Z,99482.23
2023-04-03T13:31:06.743Z,99486.98
2023-04-03T13:33:38.967Z,99490.13
2023-04-03T13:36:09.215Z,99489.31
2023-04-03T13:38:37.557Z,99486.22
2023-04-03T13:41:12.061Z,99487.79
2023-04-03T13:43:41.902Z,99490.02
2023-04-03T13:46:13.113Z,99495.16
2023-04-03T13:48:42.560Z,99496.98
2023-04-03T13:51:14.013Z,99498.95
2023-04-03T13:53:43.671Z,99495.66
2023-04-03T13:56:20.463Z,99494.59
2023-04-03T13:58:59.843Z,99499.41
2023-04-03T14:01:33.891Z,99500.21
2023-04-03T14:04:10.969Z,99500.00
2023-04-03T14:06:39.423Z,99502.86
2023-04-03T14:09:07.873Z,99505.13
2023-04-03T14:11:37.167Z,99507.94
2023-04-03T14:14:13.495Z,99508.30
2023-04-03T14:16:42.690Z,99507.87
2023-04-03T14:19:21.578Z,99513.48
2023-04-03T14:21:49.952Z,99520.07
2023-04-03T14:24:18.147Z,99519.86
2023-04-03T14:26:46.552Z,99519.18
2023-04-03T14:29:15.938Z,99522.83
2023-04-03T14:31:44.406Z,99526.34
2023-04-03T14:34:13.504Z,99528.17
2023-04-03T14:36:42.566Z,99528.07
2023-04-03T14:39:17.538Z,99528.80
2023-04-03T14:41:46.664Z,99527.09
2023-04-03T14:44:14.883Z,99527.17
2023-04-03T14:49:22.671Z,99538.47
2023-04-03T14:51:51.799Z,99541.83
2023-04-03T14:54:22.720Z,99544.70
2023-04-03T14:56:51.005Z,99551.15
2023-04-03T14:59:21.213Z,99554.51
2023-04-03T15:01:49.772Z,99562.20
2023-04-03T15:04:18.914Z,99563.62
2023-04-03T15:06:47.593Z,99571.06
2023-04-03T15:09:25.814Z,99569.68
2023-04-03T15:11:54.456Z,99577.85
2023-04-03T15:14:35.954Z,99579.64
2023-04-03T15:17:06.344Z,99579.86
2023-04-03T15:19:37.175Z,99582.08
2023-04-03T15:22:05.503Z,99584.67
2023-04-03T15:24:33.993Z,99584.75
2023-04-03T15:27:02.288Z,99589.65
2023-04-03T15:29:30.623Z,99597.50
2023-04-03T15:31:58.853Z,99606.95
2023-04-03T15:34:27.298Z,99611.25
2023-04-03T15:37:01.216Z,99617.83
2023-04-03T15:39:29.792Z,99617.24
2023-04-03T15:42:00.960Z,99623.88
2023-04-03T15:44:30.181Z,99625.47
2023-04-03T15:46:59.014Z,99626.55
2023-04-03T15:49:27.844Z,99624.03
2023-04-03T15:51:56.060Z,99627.58
2023-04-03T15:54:25.932Z,99631.80
2023-04-03T15:56:54.315Z,99636.88
2023-04-03T15:59:23.923Z,99637.66
2023-04-03T16:01:52.472Z,99638.91
2023-04-03T16:04:22.214Z,99641.08
2023-04-03T16:06:53.379Z,99645.27
2023-04-03T16:09:21.594Z,99648.09
2023-04-03T16:11:49.892Z,99648.83
2023-04-03T16:14:23.104Z,99652.16
2023-04-03T16:16:51.490Z,99651.30
2023-04-03T16:19:25.281Z,99655.46
2023-04-03T16:21:55.735Z,99652.36
2023-04-03T16:24:24.062Z,99657.05
2023-04-03T16:26:54.621Z,99666.02
2023-04-03T16:29:23.188Z,99666.03
2023-04-03T16:31:55.668Z,99675.54
2023-04-03T16:34:24.562Z,99677.29
2023-04-03T16:36:56.362Z,99682.67
2023-04-03T16:39:24.585Z,99687.52
2023-04-03T16:41:52.800Z,99692.75
2023-04-03T16:44:21.186Z,99693.83
2023-04-03T16:46:49.432Z,99696.27
2023-04-03T16:49:17.762Z,99702.17
2023-04-03T16:51:46.420Z,99704.27
2023-04-03T16:54:15.267Z,99712.22
2023-04-03T16:56:43.984Z,99712.77
2023-04-03T16:59:12.152Z,99719.17
2023-04-03T17:01:40.424Z,99718.69
2023-04-03T17:04:08.707Z,99724.77
2023-04-03T17:06:37.990Z,99725.63
2023-04-03T17:09:06.568Z,99734.75
2023-04-03T17:11:37.069Z,99733.56
2023-04-03T17:14:06.192Z,99738.39
2023-04-03T17:16:35.215Z,99742.23
2023-04-03T17:19:04.259Z,99746.73
2023-04-03T17:21:32.952Z,99749.68
2023-04-03T17:24:09.531Z,99753.33
2023-04-03T17:26:38.862Z,99755.94
2023-04-03T17:29:07.120Z,99758.02
2023-04-03T17:31:35.663Z,99763.22
2023-04-03T17:34:04.177Z,99767.89
2023-04-03T17:36:32.976Z,99769.81
2023-04-03T17:39:01.556Z,99770.53
2023-04-03T17:41:29.890Z,99771.92
2023-04-03T17:43:58.314Z,99774.50
2023-04-03T17:46:26.866Z,99780.02
2023-04-03T17:48:55.494Z,99783.17
2023-04-03T17:51:24.111Z,99784.55
2023-04-03T17:53:56.122Z,99790.77
2023-04-03T17:56:24.804Z,99792.16
2023-04-03T17:58:53.550Z,99794.23
2023-04-03T18:01:22.622Z,99796.13
2023-04-03T18:03:55.940Z,99799.94
2023-04-03T18:06:29.539Z,99807.69
2023-04-03T18:09:01.815Z,99805.80
2023-04-03T18:11:30.702Z,99806.99
2023-04-03T18:14:01.820Z,99806.30
2023-04-03T18:16:31.350Z,99809.41
2023-04-03T18:19:20.568Z,99810.80
2023-04-03T18:21:49.507Z,99811.14
2023-04-03T18:24:18.403Z,99811.66
2023-04-03T18:26:47.755Z,99813.22
2023-04-03T18:29:17.359Z,99815.48
2023-04-03T18:31:46.438Z,99812.58
2023-04-03T18:34:14.776Z,99812.73
2023-04-03T18:36:43.016Z,99814.16
2023-04-03T18:39:13.379Z,99812.28
2023-04-03T18:41:41.600Z,99814.36
2023-04-03T18:44:10.936Z,99815.24
2023-04-03T18:46:40.021Z,99813.20
2023-04-03T18:49:08.441Z,99816.65
2023-04-03T18:51:41.046Z,99821.84
2023-04-03T18:54:10.229Z,99827.55
2023-04-03T18:56:39.063Z,99832.73
2023-04-03T18:59:07.277Z,99836.70
2023-04-03T19:01:35.686Z,99838.93
2023-04-03T19:04:04.404Z,99843.24
2023-04-03T19:06:33.062Z,99845.32
2023-04-03T19:09:01.726Z,99852.73
2023-04-03T19:11:31.493Z,99861.36
2023-04-03T19:14:14.353Z,99857.23
2023-04-03T19:16:45.208Z,99857.23
2023-04-03T19:19:13.580Z,99861.39
2023-04-03T19:21:42.303Z,99866.55
2023-04-03T19:24:11.230Z,99867.73
2023-04-03T19:26:46.250Z,99867.71
2023-04-03T19:29:14.890Z,99863.95
2023-04-03T19:31:43.238Z,99863.61
2023-04-03T19:34:11.704Z,99868.06
2023-04-03T19:36:40.213Z,99869.63
2023-04-03T19:39:08.449Z,99872.03
2023-04-03T19:41:37.209Z,99877.53
2023-04-03T19:44:06.038Z,99875.98
2023-04-03T19:46:34.995Z,99877.18
2023-04-03T19:49:03.484Z,99878.77
2023-04-03T19:51:33.612Z,99881.36
2023-04-03T19:54:01.790Z,99881.55
2023-04-03T19:56:33.841Z,99881.59
2023-04-03T19:59:02.555Z,99880.70
2023-04-03T20:01:31.302Z,99883.33
2023-04-03T20:04:00.784Z,99886.79
2023-04-03T20:06:29.275Z,99885.82
2023-04-03T20:08:57.697Z,99884.85
2023-04-03T20:11:31.159Z,99887.98
2023-04-03T20:13:59.555Z,99883.33
2023-04-03T20:16:28.239Z,99888.55
2023-04-03T20:18:57.044Z,99884.92
2023-04-03T20:21:32.172Z,99883.03
2023-04-03T20:24:01.517Z,99888.90
2023-04-03T20:26:30.388Z,99884.95
2023-04-03T20:28:59.330Z,99888.88
2023-04-03T20:31:28.775Z,99889.55
2023-04-03T20:33:58.273Z,99891.44
2023-04-03T20:36:28.688Z,99892.14
2023-04-03T20:38:57.707Z,99893.16
2023-04-03T20:41:26.162Z,99894.73
2023-04-03T20:43:54.978Z,99892.63
2023-04-03T20:46:38.396Z,99894.00
2023-04-03T20:49:16.280Z,99896.58
2023-04-03T20:51:44.404Z,99896.05
2023-04-03T20:54:13.018Z,99894.15
2023-04-03T20:56:41.366Z,99897.27
2023-04-03T20:59:10.457Z,99903.14
2023-04-03T21:01:39.807Z,99900.39
2023-04-03T21:04:19.705Z,99903.66
2023-04-03T21:07:07.033Z,99907.79
2023-04-03T21:09:55.002Z,99913.31
2023-04-03T21:12:42.060Z,99913.66
2023-04-03T21:15:29.229Z,99916.77
2023-04-03T21:18:06.944Z,99921.06
2023-04-03T21:20:35.108Z,99925.38
2023-04-03T21:23:03.998Z,99925.38
2023-04-03T21:25:32.358Z,99925.03
2023-04-03T21:28:00.552Z,99924.83
2023-04-03T21:30:28.895Z,99924.30
2023-04-03T21:32:57.809Z,99924.99
2023-04-03T21:35:26.297Z,99926.20
2023-04-03T21:37:54.643Z,99926.36
2023-04-03T21:40:22.978Z,99932.91
2023-04-03T21:42:54.898Z,99933.95
2023-04-03T21:45:24.548Z,99938.62
2023-04-03T21:47:54.118Z,99946.60
2023-04-03T21:50:22.301Z,99945.09
2023-04-03T21:52:53.209Z,99948.05
2023-04-03T21:55:21.612Z,99949.27
2023-04-03T21:57:51.685Z,99952.05
2023-04-03T22:00:20.869Z,99956.05
2023-04-03T22:03:10.730Z,99958.13
2023-04-03T22:05:39.936Z,99961.76
2023-04-03T22:08:08.680Z,99961.89
2023-04-03T22:10:41.255Z,99964.10
2023-04-03T22:13:09.887Z,99961.98
2023-04-03T22:15:43.634Z,99962.13
2023-04-03T22:18:11.913Z,99959.52
2023-04-03T22:20:40.391Z,99963.98
2023-04-03T22:23:08.756Z,99962.93
2023-04-03T22:25:36.944Z,99965.34
2023-04-03T22:28:07.208Z,99965.85
2023-04-03T22:30:36.509Z,99967.91
2023-04-03T22:33:04.973Z,99969.95
2023-04-03T22:35:34.127Z,99967.70
2023-04-03T22:38:02.710Z,99964.58
2023-04-03T22:40:31.012Z,99965.59
2023-04-03T22:42:59.720Z,99962.83
2023-04-03T22:45:27.942Z,99955.94
2023-04-03T22:47:58.976Z,99962.30
2023-04-03T22:50:27.263Z,99965.41
2023-04-03T22:52:56.552Z,99968.17
2023-04-03T22:55:25.209Z,99973.17
2023-04-03T22:57:53.333Z,99971.11
2023-04-03T23:00:21.720Z,99971.46
2023-04-03T23:03:13.229Z,99977.19
2023-04-03T23:05:42.070Z,99978.39
2023-04-03T23:08:10.396Z,99980.98
2023-04-03T23:10:38.798Z,99984.95
2023-04-03T23:13:07.246Z,99984.79
2023-04-03T23:15:35.433Z,99985.99
2023-04-03T23:18:03.650Z,99987.57
2023-04-03T23:20:31.862Z,99991.56
2023-04-03T23:23:00.413Z,99988.66
2023-04-03T23:25:28.612Z,99994.35
2023-04-03T23:27:58.025Z,99990.77
2023-04-03T23:30:26.562Z,99994.89
2023-04-03T23:32:55.663Z,99995.08
2023-04-03T23:35:23.872Z,99997.17
2023-04-03T23:37:54.274Z,100003.25
2023-04-03T23:40:22.424Z,100002.92
2023-04-03T23:42:51.204Z,100005.88
2023-04-03T23:45:19.653Z,100002.45
2023-04-03T23:47:48.184Z,100003.83
2023-04-03T23:50:18.967Z,100001.77
2023-04-03T23:52:47.612Z,99996.45
2023-04-03T23:55:16.318Z,99996.98
2023-04-03T23:57:44.494Z,99998.55
